Sudbury, Massachusetts
Current Conditions -  °F | °C
As of 8:11 PM on Wednesday 22 Oct 2014 (Local Time) from KBED Reporting Station
Light Rain Light Rain  
Wind Chill: 50°   Ceiling: 1100
Heat Index: 50°   Visibility: 3mi
Dew Point: 48°   Wind: 22mph
Humidity: 93%   Direction: 40°NE
Pressure: 29.88"   Gusts: 31mph
Location:  42.38°N, 71.41°W
Report Text: KBED 230011Z 04019G27KT 3SM -RA BR OVC011 10/09 A2988 RMK AO2 PK WND 03030/2358 P0001 T01000089
Loading
Personal Weather Stations






























Interactive Weather Map
Tropical Storm Tracking
New forecast layout! Learn more

10-Day Weather Forecast

Advertisements
Track Severe Weather on mobile